sensor_id;sensor_type;location;lat;lon;timestamp;temperature;humidity
31675;DHT22;18276;45.520;11.018;2022-10-16T00:00:58;17.10;86.10
31675;DHT22;18276;45.520;11.018;2022-10-16T00:03:24;17.10;86.30
31675;DHT22;18276;45.520;11.018;2022-10-16T00:06:00;17.00;86.50
31675;DHT22;18276;45.520;11.018;2022-10-16T00:08:28;17.00;86.80
31675;DHT22;18276;45.520;11.018;2022-10-16T00:11:03;17.00;86.90
31675;DHT22;18276;45.520;11.018;2022-10-16T00:13:31;17.00;87.20
31675;DHT22;18276;45.520;11.018;2022-10-16T00:15:58;16.90;87.40
31675;DHT22;18276;45.520;11.018;2022-10-16T00:18:26;16.90;87.70
31675;DHT22;18276;45.520;11.018;2022-10-16T00:20:54;16.80;87.90
31675;DHT22;18276;45.520;11.018;2022-10-16T00:23:26;16.80;88.20
31675;DHT22;18276;45.520;11.018;2022-10-16T00:26:01;16.80;88.40
31675;DHT22;18276;45.520;11.018;2022-10-16T00:28:29;16.70;88.70
31675;DHT22;18276;45.520;11.018;2022-10-16T00:30:56;16.70;88.80
31675;DHT22;18276;45.520;11.018;2022-10-16T00:33:25;16.60;89.10
31675;DHT22;18276;45.520;11.018;2022-10-16T00:35:52;16.60;89.40
31675;DHT22;18276;45.520;11.018;2022-10-16T00:38:19;16.50;89.60
31675;DHT22;18276;45.520;11.018;2022-10-16T00:40:46;16.50;89.80
31675;DHT22;18276;45.520;11.018;2022-10-16T00:46:02;16.50;90.00
31675;DHT22;18276;45.520;11.018;2022-10-16T00:48:29;16.50;90.10
31675;DHT22;18276;45.520;11.018;2022-10-16T00:50:58;16.50;90.60
31675;DHT22;18276;45.520;11.018;2022-10-16T00:53:25;16.50;90.30
31675;DHT22;18276;45.520;11.018;2022-10-16T00:55:54;16.50;90.50
31675;DHT22;18276;45.520;11.018;2022-10-16T00:58:22;16.40;90.50
31675;DHT22;18276;45.520;11.018;2022-10-16T01:00:49;16.40;90.60
31675;DHT22;18276;45.520;11.018;2022-10-16T01:03:31;16.40;90.70
31675;DHT22;18276;45.520;11.018;2022-10-16T01:06:18;16.40;90.80
31675;DHT22;18276;45.520;11.018;2022-10-16T01:09:11;16.40;90.90
31675;DHT22;18276;45.520;11.018;2022-10-16T01:17:13;16.30;91.00
31675;DHT22;18276;45.520;11.018;2022-10-16T01:28:19;16.30;91.40
31675;DHT22;18276;45.520;11.018;2022-10-16T01:30:51;16.30;91.40
31675;DHT22;18276;45.520;11.018;2022-10-16T01:33:22;16.20;91.50
31675;DHT22;18276;45.520;11.018;2022-10-16T01:36:02;16.20;91.50
31675;DHT22;18276;45.520;11.018;2022-10-16T01:38:38;16.20;91.50
31675;DHT22;18276;45.520;11.018;2022-10-16T01:41:16;16.20;91.50
31675;DHT22;18276;45.520;11.018;2022-10-16T01:43:57;16.30;91.50
31675;DHT22;18276;45.520;11.018;2022-10-16T01:46:28;16.30;91.50
31675;DHT22;18276;45.520;11.018;2022-10-16T01:48:58;16.20;91.50
31675;DHT22;18276;45.520;11.018;2022-10-16T01:51:26;16.20;91.40
31675;DHT22;18276;45.520;11.018;2022-10-16T01:53:56;16.20;91.40
31675;DHT22;18276;45.520;11.018;2022-10-16T01:56:25;16.20;91.50
31675;DHT22;18276;45.520;11.018;2022-10-16T01:58:57;16.20;91.40
31675;DHT22;18276;45.520;11.018;2022-10-16T02:01:26;16.20;91.40
31675;DHT22;18276;45.520;11.018;2022-10-16T02:03:58;16.20;91.30
31675;DHT22;18276;45.520;11.018;2022-10-16T02:06:25;16.20;91.30
31675;DHT22;18276;45.520;11.018;2022-10-16T02:08:53;16.20;91.30
31675;DHT22;18276;45.520;11.018;2022-10-16T02:11:20;16.20;91.30
31675;DHT22;18276;45.520;11.018;2022-10-16T02:14:01;16.20;91.20
31675;DHT22;18276;45.520;11.018;2022-10-16T02:16:41;16.20;91.10
31675;DHT22;18276;45.520;11.018;2022-10-16T02:19:12;16.20;91.00
31675;DHT22;18276;45.520;11.018;2022-10-16T02:21:59;16.20;91.00
31675;DHT22;18276;45.520;11.018;2022-10-16T02:24:45;16.20;90.90
31675;DHT22;18276;45.520;11.018;2022-10-16T02:30:05;16.30;90.60
31675;DHT22;18276;45.520;11.018;2022-10-16T02:32:37;16.30;90.50
31675;DHT22;18276;45.520;11.018;2022-10-16T02:35:06;16.30;90.30
31675;DHT22;18276;45.520;11.018;2022-10-16T02:37:34;16.40;90.20
31675;DHT22;18276;45.520;11.018;2022-10-16T02:40:01;16.40;90.00
31675;DHT22;18276;45.520;11.018;2022-10-16T02:42:34;16.40;89.70
31675;DHT22;18276;45.520;11.018;2022-10-16T02:45:02;16.50;89.30
31675;DHT22;18276;45.520;11.018;2022-10-16T02:47:29;16.50;89.00
31675;DHT22;18276;45.520;11.018;2022-10-16T02:49:56;16.50;88.80
31675;DHT22;18276;45.520;11.018;2022-10-16T02:52:23;16.50;88.60
31675;DHT22;18276;45.520;11.018;2022-10-16T02:54:51;16.50;88.50
31675;DHT22;18276;45.520;11.018;2022-10-16T02:57:18;16.50;88.40
31675;DHT22;18276;45.520;11.018;2022-10-16T02:59:45;16.50;88.40
31675;DHT22;18276;45.520;11.018;2022-10-16T03:02:13;16.50;88.40
31675;DHT22;18276;45.520;11.018;2022-10-16T03:04:40;16.40;88.30
31675;DHT22;18276;45.520;11.018;2022-10-16T03:07:07;16.40;88.30
31675;DHT22;18276;45.520;11.018;2022-10-16T03:09:34;16.30;88.30
31675;DHT22;18276;45.520;11.018;2022-10-16T03:12:01;16.30;88.40
31675;DHT22;18276;45.520;11.018;2022-10-16T03:14:29;16.30;88.50
31675;DHT22;18276;45.520;11.018;2022-10-16T03:16:56;16.30;88.50
31675;DHT22;18276;45.520;11.018;2022-10-16T03:19:23;16.20;88.40
31675;DHT22;18276;45.520;11.018;2022-10-16T03:21:50;16.20;88.40
31675;DHT22;18276;45.520;11.018;2022-10-16T03:24:17;16.20;88.50
31675;DHT22;18276;45.520;11.018;2022-10-16T03:26:44;16.20;88.60
31675;DHT22;18276;45.520;11.018;2022-10-16T03:29:11;16.10;88.70
31675;DHT22;18276;45.520;11.018;2022-10-16T03:31:38;16.10;88.80
31675;DHT22;18276;45.520;11.018;2022-10-16T03:34:05;16.00;88.90
31675;DHT22;18276;45.520;11.018;2022-10-16T03:36:32;16.00;89.20
31675;DHT22;18276;45.520;11.018;2022-10-16T03:38:59;15.90;89.40
31675;DHT22;18276;45.520;11.018;2022-10-16T03:41:26;15.90;89.60
31675;DHT22;18276;45.520;11.018;2022-10-16T03:43:53;15.90;89.70
31675;DHT22;18276;45.520;11.018;2022-10-16T03:46:20;15.80;89.90
31675;DHT22;18276;45.520;11.018;2022-10-16T03:48:47;15.80;90.00
31675;DHT22;18276;45.520;11.018;2022-10-16T03:51:14;15.80;90.10
31675;DHT22;18276;45.520;11.018;2022-10-16T03:53:41;15.70;90.20
31675;DHT22;18276;45.520;11.018;2022-10-16T03:56:09;15.70;90.30
31675;DHT22;18276;45.520;11.018;2022-10-16T03:58:36;15.70;90.30
31675;DHT22;18276;45.520;11.018;2022-10-16T04:01:03;15.70;90.40
31675;DHT22;18276;45.520;11.018;2022-10-16T04:03:30;15.70;90.50
31675;DHT22;18276;45.520;11.018;2022-10-16T04:05:57;15.70;90.60
31675;DHT22;18276;45.520;11.018;2022-10-16T04:08:24;15.60;91.00
31675;DHT22;18276;45.520;11.018;2022-10-16T04:10:51;15.60;90.70
31675;DHT22;18276;45.520;11.018;2022-10-16T04:13:18;15.60;90.80
31675;DHT22;18276;45.520;11.018;2022-10-16T04:15:50;15.60;90.90
31675;DHT22;18276;45.520;11.018;2022-10-16T04:18:17;15.60;90.90
31675;DHT22;18276;45.520;11.018;2022-10-16T04:20:44;15.60;91.00
31675;DHT22;18276;45.520;11.018;2022-10-16T04:23:11;15.50;91.00
31675;DHT22;18276;45.520;11.018;2022-10-16T04:25:38;15.50;91.10
31675;DHT22;18276;45.520;11.018;2022-10-16T04:28:05;15.50;91.20
31675;DHT22;18276;45.520;11.018;2022-10-16T04:30:32;15.50;91.30
31675;DHT22;18276;45.520;11.018;2022-10-16T04:33:00;15.50;91.30
31675;DHT22;18276;45.520;11.018;2022-10-16T04:35:32;15.50;91.30
31675;DHT22;18276;45.520;11.018;2022-10-16T04:37:59;15.50;91.40
31675;DHT22;18276;45.520;11.018;2022-10-16T04:40:26;15.50;91.40
31675;DHT22;18276;45.520;11.018;2022-10-16T04:42:53;15.50;91.40
31675;DHT22;18276;45.520;11.018;2022-10-16T04:45:20;15.50;91.50
31675;DHT22;18276;45.520;11.018;2022-10-16T04:47:47;15.50;91.50
31675;DHT22;18276;45.520;11.018;2022-10-16T04:50:14;15.50;91.50
31675;DHT22;18276;45.520;11.018;2022-10-16T04:53:00;15.50;91.50
31675;DHT22;18276;45.520;11.018;2022-10-16T04:55:27;15.50;91.50
31675;DHT22;18276;45.520;11.018;2022-10-16T04:57:54;15.60;91.60
31675;DHT22;18276;45.520;11.018;2022-10-16T05:00:21;15.60;91.60
31675;DHT22;18276;45.520;11.018;2022-10-16T05:02:52;15.60;91.60
31675;DHT22;18276;45.520;11.018;2022-10-16T05:05:19;15.70;91.50
31675;DHT22;18276;45.520;11.018;2022-10-16T05:07:49;15.80;91.40
31675;DHT22;18276;45.520;11.018;2022-10-16T05:10:16;15.80;91.30
31675;DHT22;18276;45.520;11.018;2022-10-16T05:12:44;15.80;91.20
31675;DHT22;18276;45.520;11.018;2022-10-16T05:15:11;15.90;91.10
31675;DHT22;18276;45.520;11.018;2022-10-16T05:17:38;16.00;91.00
31675;DHT22;18276;45.520;11.018;2022-10-16T05:20:11;16.10;90.90
31675;DHT22;18276;45.520;11.018;2022-10-16T05:22:38;16.10;90.70
31675;DHT22;18276;45.520;11.018;2022-10-16T05:25:05;16.10;90.60
31675;DHT22;18276;45.520;11.018;2022-10-16T05:27:32;16.20;90.50
31675;DHT22;18276;45.520;11.018;2022-10-16T05:29:59;16.30;90.40
31675;DHT22;18276;45.520;11.018;2022-10-16T05:32:26;16.30;90.20
31675;DHT22;18276;45.520;11.018;2022-10-16T05:34:53;16.40;90.10
31675;DHT22;18276;45.520;11.018;2022-10-16T05:37:20;16.40;90.00
31675;DHT22;18276;45.520;11.018;2022-10-16T05:39:48;16.40;89.60
31675;DHT22;18276;45.520;11.018;2022-10-16T05:42:15;16.50;89.40
31675;DHT22;18276;45.520;11.018;2022-10-16T05:44:42;16.50;89.10
31675;DHT22;18276;45.520;11.018;2022-10-16T05:47:09;16.50;88.90
31675;DHT22;18276;45.520;11.018;2022-10-16T05:49:37;16.60;88.80
31675;DHT22;18276;45.520;11.018;2022-10-16T05:52:07;16.60;89.30
31675;DHT22;18276;45.520;11.018;2022-10-16T05:54:34;16.60;88.40
31675;DHT22;18276;45.520;11.018;2022-10-16T05:57:01;16.70;88.30
31675;DHT22;18276;45.520;11.018;2022-10-16T05:59:28;16.70;88.20
31675;DHT22;18276;45.520;11.018;2022-10-16T06:01:55;16.70;88.10
31675;DHT22;18276;45.520;11.018;2022-10-16T06:04:23;16.80;88.00
31675;DHT22;18276;45.520;11.018;2022-10-16T06:06:50;16.80;87.80
31675;DHT22;18276;45.520;11.018;2022-10-16T06:09:17;16.90;87.70
31675;DHT22;18276;45.520;11.018;2022-10-16T06:11:44;16.90;87.50
31675;DHT22;18276;45.520;11.018;2022-10-16T06:14:11;16.90;87.40
31675;DHT22;18276;45.520;11.018;2022-10-16T06:16:38;17.00;87.30
31675;DHT22;18276;45.520;11.018;2022-10-16T06:19:05;17.00;87.10
31675;DHT22;18276;45.520;11.018;2022-10-16T06:21:35;17.10;87.00
31675;DHT22;18276;45.520;11.018;2022-10-16T06:24:03;17.10;86.70
31675;DHT22;18276;45.520;11.018;2022-10-16T06:26:31;17.20;86.50
31675;DHT22;18276;45.520;11.018;2022-10-16T06:28:59;17.30;86.40
31675;DHT22;18276;45.520;11.018;2022-10-16T06:31:27;17.30;86.10
31675;DHT22;18276;45.520;11.018;2022-10-16T06:33:57;17.40;86.00
31675;DHT22;18276;45.520;11.018;2022-10-16T06:36:26;17.50;85.80
31675;DHT22;18276;45.520;11.018;2022-10-16T06:38:53;17.50;85.60
31675;DHT22;18276;45.520;11.018;2022-10-16T06:41:22;17.60;85.40
31675;DHT22;18276;45.520;11.018;2022-10-16T06:43:49;17.70;85.10
31675;DHT22;18276;45.520;11.018;2022-10-16T06:46:19;17.80;85.00
31675;DHT22;18276;45.520;11.018;2022-10-16T06:48:46;17.90;84.80
31675;DHT22;18276;45.520;11.018;2022-10-16T06:51:19;18.00;84.60
31675;DHT22;18276;45.520;11.018;2022-10-16T06:53:54;18.00;84.30
31675;DHT22;18276;45.520;11.018;2022-10-16T06:56:30;18.10;84.10
31675;DHT22;18276;45.520;11.018;2022-10-16T06:58:58;18.10;84.10
31675;DHT22;18276;45.520;11.018;2022-10-16T07:01:26;18.20;83.70
31675;DHT22;18276;45.520;11.018;2022-10-16T07:03:53;18.30;83.70
31675;DHT22;18276;45.520;11.018;2022-10-16T07:06:22;18.40;83.80
31675;DHT22;18276;45.520;11.018;2022-10-16T07:08:49;18.40;83.90
31675;DHT22;18276;45.520;11.018;2022-10-16T07:11:19;18.50;83.80
31675;DHT22;18276;45.520;11.018;2022-10-16T07:13:48;18.50;83.60
31675;DHT22;18276;45.520;11.018;2022-10-16T07:16:30;18.70;83.40
31675;DHT22;18276;45.520;11.018;2022-10-16T07:18:59;18.80;82.90
31675;DHT22;18276;45.520;11.018;2022-10-16T07:21:29;18.90;82.50
31675;DHT22;18276;45.520;11.018;2022-10-16T07:23:58;19.10;82.10
31675;DHT22;18276;45.520;11.018;2022-10-16T07:26:27;19.10;81.60
31675;DHT22;18276;45.520;11.018;2022-10-16T07:28:55;19.30;81.30
31675;DHT22;18276;45.520;11.018;2022-10-16T07:31:23;19.40;81.00
31675;DHT22;18276;45.520;11.018;2022-10-16T07:33:51;19.50;80.50
31675;DHT22;18276;45.520;11.018;2022-10-16T07:36:19;19.60;80.10
31675;DHT22;18276;45.520;11.018;2022-10-16T07:38:47;19.60;79.80
31675;DHT22;18276;45.520;11.018;2022-10-16T07:41:16;19.70;79.70
31675;DHT22;18276;45.520;11.018;2022-10-16T07:43:48;19.80;79.50
31675;DHT22;18276;45.520;11.018;2022-10-16T07:46:16;19.90;79.20
31675;DHT22;18276;45.520;11.018;2022-10-16T07:48:44;20.10;78.90
31675;DHT22;18276;45.520;11.018;2022-10-16T07:51:20;20.20;78.40
31675;DHT22;18276;45.520;11.018;2022-10-16T07:53:47;20.30;78.00
31675;DHT22;18276;45.520;11.018;2022-10-16T07:56:15;20.30;77.70
31675;DHT22;18276;45.520;11.018;2022-10-16T07:58:43;20.30;77.70
31675;DHT22;18276;45.520;11.018;2022-10-16T08:01:12;20.20;77.60
31675;DHT22;18276;45.520;11.018;2022-10-16T08:03:44;20.10;77.70
31675;DHT22;18276;45.520;11.018;2022-10-16T08:06:12;20.00;78.00
31675;DHT22;18276;45.520;11.018;2022-10-16T08:08:39;20.00;78.30
31675;DHT22;18276;45.520;11.018;2022-10-16T08:11:06;20.50;78.70
31675;DHT22;18276;45.520;11.018;2022-10-16T08:13:33;22.00;75.90
31675;DHT22;18276;45.520;11.018;2022-10-16T08:16:01;23.60;71.30
31675;DHT22;18276;45.520;11.018;2022-10-16T08:18:28;25.00;65.90
31675;DHT22;18276;45.520;11.018;2022-10-16T08:20:58;26.10;60.90
31675;DHT22;18276;45.520;11.018;2022-10-16T08:23:27;27.00;58.30
31675;DHT22;18276;45.520;11.018;2022-10-16T08:25:55;27.50;56.50
31675;DHT22;18276;45.520;11.018;2022-10-16T08:28:23;28.00;55.00
31675;DHT22;18276;45.520;11.018;2022-10-16T08:30:50;28.60;53.70
31675;DHT22;18276;45.520;11.018;2022-10-16T08:33:17;29.00;52.40
31675;DHT22;18276;45.520;11.018;2022-10-16T08:35:54;29.40;51.30
31675;DHT22;18276;45.520;11.018;2022-10-16T08:38:21;29.60;50.10
31675;DHT22;18276;45.520;11.018;2022-10-16T08:40:48;29.80;50.20
31675;DHT22;18276;45.520;11.018;2022-10-16T08:48:46;30.50;48.30
31675;DHT22;18276;45.520;11.018;2022-10-16T08:54:28;30.60;48.00
31675;DHT22;18276;45.520;11.018;2022-10-16T08:56:46;30.50;47.90
31675;DHT22;18276;45.520;11.018;2022-10-16T08:59:14;30.40;47.90
31675;DHT22;18276;45.520;11.018;2022-10-16T09:01:47;30.20;47.40
31675;DHT22;18276;45.520;11.018;2022-10-16T09:07:02;30.30;47.20
31675;DHT22;18276;45.520;11.018;2022-10-16T09:15:29;30.80;46.20
31675;DHT22;18276;45.520;11.018;2022-10-16T09:23:17;31.30;45.10
31675;DHT22;18276;45.520;11.018;2022-10-16T09:25:48;31.70;44.30
31675;DHT22;18276;45.520;11.018;2022-10-16T09:28:17;31.90;43.40
31675;DHT22;18276;45.520;11.018;2022-10-16T09:30:46;32.00;43.30
31675;DHT22;18276;45.520;11.018;2022-10-16T09:33:17;32.30;42.90
31675;DHT22;18276;45.520;11.018;2022-10-16T09:35:47;32.50;42.50
31675;DHT22;18276;45.520;11.018;2022-10-16T09:38:29;32.70;41.90
31675;DHT22;18276;45.520;11.018;2022-10-16T09:41:02;33.00;41.50
31675;DHT22;18276;45.520;11.018;2022-10-16T09:43:40;32.90;42.00
31675;DHT22;18276;45.520;11.018;2022-10-16T09:46:40;32.90;41.40
31675;DHT22;18276;45.520;11.018;2022-10-16T09:49:25;33.00;41.60
31675;DHT22;18276;45.520;11.018;2022-10-16T09:52:09;33.40;40.60
31675;DHT22;18276;45.520;11.018;2022-10-16T09:54:37;33.60;39.70
31675;DHT22;18276;45.520;11.018;2022-10-16T09:57:15;33.60;40.20
31675;DHT22;18276;45.520;11.018;2022-10-16T09:59:47;33.90;39.80
31675;DHT22;18276;45.520;11.018;2022-10-16T10:02:16;34.30;38.50
31675;DHT22;18276;45.520;11.018;2022-10-16T10:04:52;34.50;38.20
31675;DHT22;18276;45.520;11.018;2022-10-16T10:07:43;34.50;37.70
31675;DHT22;18276;45.520;11.018;2022-10-16T10:10:24;34.40;37.90
31675;DHT22;18276;45.520;11.018;2022-10-16T10:12:52;34.70;37.60
31675;DHT22;18276;45.520;11.018;2022-10-16T10:15:19;34.80;37.60
31675;DHT22;18276;45.520;11.018;2022-10-16T10:17:51;34.90;37.40
31675;DHT22;18276;45.520;11.018;2022-10-16T10:22:50;34.40;37.40
31675;DHT22;18276;45.520;11.018;2022-10-16T10:28:16;34.30;37.50
31675;DHT22;18276;45.520;11.018;2022-10-16T10:34:11;34.10;37.80
31675;DHT22;18276;45.520;11.018;2022-10-16T10:39:24;33.60;38.80
31675;DHT22;18276;45.520;11.018;2022-10-16T10:42:14;34.00;38.10
31675;DHT22;18276;45.520;11.018;2022-10-16T11:01:55;33.70;38.70
31675;DHT22;18276;45.520;11.018;2022-10-16T11:07:03;34.10;38.10
31675;DHT22;18276;45.520;11.018;2022-10-16T11:09:38;34.10;37.70
31675;DHT22;18276;45.520;11.018;2022-10-16T11:12:13;34.20;37.60
31675;DHT22;18276;45.520;11.018;2022-10-16T11:18:00;33.00;39.20
31675;DHT22;18276;45.520;11.018;2022-10-16T11:20:34;32.40;40.20
31675;DHT22;18276;45.520;11.018;2022-10-16T11:23:31;32.50;40.80
31675;DHT22;18276;45.520;11.018;2022-10-16T11:26:04;32.10;40.40
31675;DHT22;18276;45.520;11.018;2022-10-16T11:28:34;31.70;41.50
31675;DHT22;18276;45.520;11.018;2022-10-16T11:31:22;32.00;41.60
31675;DHT22;18276;45.520;11.018;2022-10-16T11:33:59;32.60;40.30
31675;DHT22;18276;45.520;11.018;2022-10-16T11:39:18;33.00;39.20
31675;DHT22;18276;45.520;11.018;2022-10-16T11:47:45;34.20;38.10
31675;DHT22;18276;45.520;11.018;2022-10-16T11:55:50;35.60;36.00
31675;DHT22;18276;45.520;11.018;2022-10-16T12:03:40;35.70;35.40
31675;DHT22;18276;45.520;11.018;2022-10-16T12:06:30;35.60;35.50
31675;DHT22;18276;45.520;11.018;2022-10-16T12:08:59;35.90;35.00
31675;DHT22;18276;45.520;11.018;2022-10-16T12:11:38;35.60;35.20
31675;DHT22;18276;45.520;11.018;2022-10-16T12:17:02;34.10;37.40
31675;DHT22;18276;45.520;11.018;2022-10-16T12:19:30;33.90;38.20
31675;DHT22;18276;45.520;11.018;2022-10-16T12:22:01;33.90;37.80
31675;DHT22;18276;45.520;11.018;2022-10-16T12:24:35;34.10;37.90
31675;DHT22;18276;45.520;11.018;2022-10-16T12:27:05;34.60;37.20
31675;DHT22;18276;45.520;11.018;2022-10-16T12:29:39;35.00;36.60
31675;DHT22;18276;45.520;11.018;2022-10-16T12:35:21;35.80;35.60
31675;DHT22;18276;45.520;11.018;2022-10-16T12:37:50;35.90;35.50
31675;DHT22;18276;45.520;11.018;2022-10-16T12:40:32;36.00;35.20
31675;DHT22;18276;45.520;11.018;2022-10-16T12:43:57;35.60;35.30
31675;DHT22;18276;45.520;11.018;2022-10-16T12:46:04;35.30;35.60
31675;DHT22;18276;45.520;11.018;2022-10-16T12:48:31;35.10;36.40
31675;DHT22;18276;45.520;11.018;2022-10-16T12:56:54;35.00;36.20
31675;DHT22;18276;45.520;11.018;2022-10-16T13:14:03;31.50;41.20
31675;DHT22;18276;45.520;11.018;2022-10-16T13:22:12;30.00;44.30
31675;DHT22;18276;45.520;11.018;2022-10-16T13:30:16;29.60;45.30
31675;DHT22;18276;45.520;11.018;2022-10-16T13:32:59;29.40;45.80
31675;DHT22;18276;45.520;11.018;2022-10-16T13:35:33;29.50;46.10
31675;DHT22;18276;45.520;11.018;2022-10-16T13:38:33;29.60;46.50
31675;DHT22;18276;45.520;11.018;2022-10-16T13:43:31;29.80;45.30
31675;DHT22;18276;45.520;11.018;2022-10-16T13:48:31;29.80;45.20
31675;DHT22;18276;45.520;11.018;2022-10-16T13:51:19;29.40;45.90
31675;DHT22;18276;45.520;11.018;2022-10-16T13:53:46;29.30;46.40
31675;DHT22;18276;45.520;11.018;2022-10-16T13:56:18;29.00;46.60
31675;DHT22;18276;45.520;11.018;2022-10-16T13:58:46;28.80;47.30
31675;DHT22;18276;45.520;11.018;2022-10-16T14:03:41;28.20;48.50
31675;DHT22;18276;45.520;11.018;2022-10-16T14:06:14;28.20;49.00
31675;DHT22;18276;45.520;11.018;2022-10-16T14:08:51;28.30;48.90
31675;DHT22;18276;45.520;11.018;2022-10-16T14:11:24;28.00;49.20
31675;DHT22;18276;45.520;11.018;2022-10-16T14:13:52;27.60;50.10
31675;DHT22;18276;45.520;11.018;2022-10-16T14:16:25;27.30;51.10
31675;DHT22;18276;45.520;11.018;2022-10-16T14:21:25;26.60;52.60
31675;DHT22;18276;45.520;11.018;2022-10-16T14:23:53;26.30;53.20
31675;DHT22;18276;45.520;11.018;2022-10-16T14:26:23;26.20;54.20
31675;DHT22;18276;45.520;11.018;2022-10-16T14:29:03;26.20;54.20
31675;DHT22;18276;45.520;11.018;2022-10-16T14:31:33;26.10;54.40
31675;DHT22;18276;45.520;11.018;2022-10-16T14:34:00;26.00;54.60
31675;DHT22;18276;45.520;11.018;2022-10-16T14:36:28;25.80;55.00
31675;DHT22;18276;45.520;11.018;2022-10-16T14:39:13;25.50;55.50
31675;DHT22;18276;45.520;11.018;2022-10-16T14:41:45;25.40;56.10
31675;DHT22;18276;45.520;11.018;2022-10-16T14:44:13;25.30;56.30
31675;DHT22;18276;45.520;11.018;2022-10-16T14:46:42;25.30;56.40
31675;DHT22;18276;45.520;11.018;2022-10-16T14:51:39;25.10;57.10
31675;DHT22;18276;45.520;11.018;2022-10-16T14:54:09;25.10;57.10
31675;DHT22;18276;45.520;11.018;2022-10-16T14:56:53;25.00;57.30
31675;DHT22;18276;45.520;11.018;2022-10-16T14:59:39;25.00;57.70
31675;DHT22;18276;45.520;11.018;2022-10-16T15:02:31;24.90;57.80
31675;DHT22;18276;45.520;11.018;2022-10-16T15:05:20;24.90;58.00
31675;DHT22;18276;45.520;11.018;2022-10-16T15:07:49;24.80;58.30
31675;DHT22;18276;45.520;11.018;2022-10-16T15:10:17;24.60;58.40
31675;DHT22;18276;45.520;11.018;2022-10-16T15:12:44;24.50;58.60
31675;DHT22;18276;45.520;11.018;2022-10-16T15:17:50;24.30;59.30
31675;DHT22;18276;45.520;11.018;2022-10-16T15:20:20;24.20;59.50
31675;DHT22;18276;45.520;11.018;2022-10-16T15:22:47;24.00;59.70
31675;DHT22;18276;45.520;11.018;2022-10-16T15:25:37;24.00;60.90
31675;DHT22;18276;45.520;11.018;2022-10-16T15:28:06;23.90;60.50
31675;DHT22;18276;45.520;11.018;2022-10-16T15:30:34;23.80;60.70
31675;DHT22;18276;45.520;11.018;2022-10-16T15:33:03;23.80;61.20
31675;DHT22;18276;45.520;11.018;2022-10-16T15:35:31;23.80;61.60
31675;DHT22;18276;45.520;11.018;2022-10-16T15:37:58;23.80;61.80
31675;DHT22;18276;45.520;11.018;2022-10-16T15:40:25;23.80;62.40
31675;DHT22;18276;45.520;11.018;2022-10-16T15:42:53;23.70;63.50
31675;DHT22;18276;45.520;11.018;2022-10-16T15:45:21;23.60;62.80
31675;DHT22;18276;45.520;11.018;2022-10-16T15:47:48;23.60;63.30
31675;DHT22;18276;45.520;11.018;2022-10-16T15:50:15;23.50;63.70
31675;DHT22;18276;45.520;11.018;2022-10-16T15:52:42;23.40;63.90
31675;DHT22;18276;45.520;11.018;2022-10-16T15:55:12;23.30;64.10
31675;DHT22;18276;45.520;11.018;2022-10-16T15:57:40;23.30;64.40
31675;DHT22;18276;45.520;11.018;2022-10-16T16:00:12;23.20;64.70
31675;DHT22;18276;45.520;11.018;2022-10-16T16:02:41;23.10;65.10
31675;DHT22;18276;45.520;11.018;2022-10-16T16:05:10;23.10;66.70
31675;DHT22;18276;45.520;11.018;2022-10-16T16:07:38;23.00;66.70
31675;DHT22;18276;45.520;11.018;2022-10-16T16:10:08;23.00;67.20
31675;DHT22;18276;45.520;11.018;2022-10-16T16:12:35;22.90;67.70
31675;DHT22;18276;45.520;11.018;2022-10-16T16:15:05;22.80;68.40
31675;DHT22;18276;45.520;11.018;2022-10-16T16:17:33;22.70;69.00
31675;DHT22;18276;45.520;11.018;2022-10-16T16:20:01;22.60;69.20
31675;DHT22;18276;45.520;11.018;2022-10-16T16:22:28;22.50;69.60
31675;DHT22;18276;45.520;11.018;2022-10-16T16:24:55;22.40;70.00
31675;DHT22;18276;45.520;11.018;2022-10-16T16:27:22;22.30;70.70
31675;DHT22;18276;45.520;11.018;2022-10-16T16:29:52;22.20;71.20
31675;DHT22;18276;45.520;11.018;2022-10-16T16:32:20;22.00;71.40
31675;DHT22;18276;45.520;11.018;2022-10-16T16:34:47;21.90;71.90
31675;DHT22;18276;45.520;11.018;2022-10-16T16:37:14;21.80;72.30
31675;DHT22;18276;45.520;11.018;2022-10-16T16:39:41;21.70;72.50
31675;DHT22;18276;45.520;11.018;2022-10-16T16:42:08;21.60;72.80
31675;DHT22;18276;45.520;11.018;2022-10-16T16:44:37;21.50;73.00
31675;DHT22;18276;45.520;11.018;2022-10-16T16:47:05;21.40;73.20
31675;DHT22;18276;45.520;11.018;2022-10-16T16:49:32;21.30;73.60
31675;DHT22;18276;45.520;11.018;2022-10-16T16:51:59;21.10;73.90
31675;DHT22;18276;45.520;11.018;2022-10-16T16:54:26;21.00;74.40
31675;DHT22;18276;45.520;11.018;2022-10-16T16:56:54;20.90;74.80
31675;DHT22;18276;45.520;11.018;2022-10-16T16:59:21;20.90;75.20
31675;DHT22;18276;45.520;11.018;2022-10-16T17:01:49;20.70;75.50
31675;DHT22;18276;45.520;11.018;2022-10-16T17:04:22;20.60;75.70
31675;DHT22;18276;45.520;11.018;2022-10-16T17:06:49;20.60;75.90
31675;DHT22;18276;45.520;11.018;2022-10-16T17:09:16;20.50;76.20
31675;DHT22;18276;45.520;11.018;2022-10-16T17:11:43;20.40;76.40
31675;DHT22;18276;45.520;11.018;2022-10-16T17:14:11;20.40;77.40
31675;DHT22;18276;45.520;11.018;2022-10-16T17:16:39;20.30;76.90
31675;DHT22;18276;45.520;11.018;2022-10-16T17:19:07;20.30;77.20
31675;DHT22;18276;45.520;11.018;2022-10-16T17:21:35;20.20;77.40
31675;DHT22;18276;45.520;11.018;2022-10-16T17:24:03;20.20;77.70
31675;DHT22;18276;45.520;11.018;2022-10-16T17:26:31;20.10;77.80
31675;DHT22;18276;45.520;11.018;2022-10-16T17:29:00;20.10;78.10
31675;DHT22;18276;45.520;11.018;2022-10-16T17:31:33;20.00;78.30
31675;DHT22;18276;45.520;11.018;2022-10-16T17:34:04;20.00;78.70
31675;DHT22;18276;45.520;11.018;2022-10-16T17:36:33;19.90;79.40
31675;DHT22;18276;45.520;11.018;2022-10-16T17:39:04;19.80;78.80
31675;DHT22;18276;45.520;11.018;2022-10-16T17:41:32;19.80;79.10
31675;DHT22;18276;45.520;11.018;2022-10-16T17:44:00;19.70;79.20
31675;DHT22;18276;45.520;11.018;2022-10-16T17:46:27;19.60;79.40
31675;DHT22;18276;45.520;11.018;2022-10-16T17:48:55;19.60;79.70
31675;DHT22;18276;45.520;11.018;2022-10-16T17:51:28;19.50;80.00
31675;DHT22;18276;45.520;11.018;2022-10-16T17:53:58;19.40;80.30
31675;DHT22;18276;45.520;11.018;2022-10-16T17:56:26;19.40;80.60
31675;DHT22;18276;45.520;11.018;2022-10-16T17:58:55;19.30;80.70
31675;DHT22;18276;45.520;11.018;2022-10-16T18:01:25;19.30;80.90
31675;DHT22;18276;45.520;11.018;2022-10-16T18:03:58;19.20;80.90